createdAt,value
2022-09-09T00:00:23.824Z,0.00
2022-09-09T00:01:23.800Z,0.00
2022-09-09T00:02:23.920Z,0.00
2022-09-09T00:03:23.854Z,0.00
2022-09-09T00:04:23.760Z,0.00
2022-09-09T00:05:23.769Z,0.00
2022-09-09T00:06:23.747Z,0.00
2022-09-09T00:07:23.738Z,0.00
2022-09-09T00:08:23.739Z,0.00
2022-09-09T00:09:23.721Z,0.00
2022-09-09T00:10:23.719Z,0.00
2022-09-09T00:11:26.128Z,0.00
2022-09-09T00:12:24.673Z,0.00
2022-09-09T00:13:23.668Z,0.00
2022-09-09T00:14:23.663Z,0.00
2022-09-09T00:15:23.671Z,0.00
2022-09-09T00:16:23.713Z,0.00
2022-09-09T00:17:23.632Z,0.00
2022-09-09T00:18:23.621Z,0.00
2022-09-09T00:19:23.607Z,0.00
2022-09-09T00:20:23.617Z,0.00
2022-09-09T00:21:23.590Z,0.00
2022-09-09T00:22:23.580Z,0.00
2022-09-09T00:23:23.568Z,0.00
2022-09-09T00:24:23.562Z,0.00
2022-09-09T00:25:23.573Z,0.00
2022-09-09T00:26:23.541Z,0.00
2022-09-09T00:27:23.536Z,0.00
2022-09-09T00:28:23.521Z,0.00
2022-09-09T00:29:23.506Z,0.00
2022-09-09T00:30:23.541Z,0.00
2022-09-09T00:31:23.520Z,0.00
2022-09-09T00:32:23.487Z,0.00
2022-09-09T00:33:23.472Z,0.00
2022-09-09T00:34:23.470Z,0.00
2022-09-09T00:35:23.469Z,0.00
2022-09-09T00:36:23.441Z,0.00
2022-09-09T00:37:23.434Z,0.00
2022-09-09T00:38:23.422Z,0.00
2022-09-09T00:39:23.410Z,0.00
2022-09-09T00:40:23.408Z,0.00
2022-09-09T00:41:23.387Z,0.00
2022-09-09T00:42:23.385Z,0.00
2022-09-09T00:43:23.365Z,0.00
2022-09-09T00:44:23.352Z,0.00
2022-09-09T00:45:23.365Z,0.00
2022-09-09T00:46:23.417Z,0.00
2022-09-09T00:47:23.329Z,0.00
2022-09-09T00:48:23.309Z,0.00
2022-09-09T00:49:23.308Z,0.00
2022-09-09T00:50:23.311Z,0.00
2022-09-09T00:51:23.286Z,0.00
2022-09-09T00:52:23.267Z,0.00
2022-09-09T00:53:23.294Z,0.00
2022-09-09T00:54:23.254Z,0.00
2022-09-09T00:55:23.273Z,0.00
2022-09-09T00:56:23.231Z,0.00
2022-09-09T00:57:23.223Z,0.00
2022-09-09T00:58:23.208Z,0.00
2022-09-09T00:59:27.783Z,0.00
2022-09-09T01:00:25.217Z,0.00
2022-09-09T01:01:23.214Z,0.00
2022-09-09T01:02:23.214Z,0.00
2022-09-09T01:03:23.163Z,0.00
2022-09-09T01:04:23.142Z,0.00
2022-09-09T01:05:23.148Z,0.00
2022-09-09T01:06:23.131Z,0.00
2022-09-09T01:07:23.114Z,0.00
2022-09-09T01:08:23.114Z,0.00
2022-09-09T01:09:23.102Z,0.00
2022-09-09T01:10:23.107Z,0.00
2022-09-09T01:11:23.090Z,0.00
2022-09-09T01:12:23.066Z,0.00
2022-09-09T01:13:23.060Z,0.00
2022-09-09T01:14:23.062Z,0.00
2022-09-09T01:15:23.061Z,0.00
2022-09-09T01:16:23.060Z,0.00
2022-09-09T01:17:23.015Z,0.00
2022-09-09T01:18:23.013Z,0.00
2022-09-09T01:19:23.000Z,0.00
2022-09-09T01:20:23.006Z,0.00
2022-09-09T01:21:22.972Z,0.00
2022-09-09T01:22:22.964Z,0.00
2022-09-09T01:23:22.961Z,0.00
2022-09-09T01:24:22.945Z,0.00
2022-09-09T01:25:22.953Z,0.00
2022-09-09T01:26:22.927Z,0.00
2022-09-09T01:27:22.918Z,0.00
2022-09-09T01:28:22.922Z,0.00
2022-09-09T01:29:22.901Z,0.00
2022-09-09T01:30:22.909Z,0.00
2022-09-09T01:31:22.919Z,0.00
2022-09-09T01:32:22.868Z,0.00
2022-09-09T01:33:22.861Z,0.00
2022-09-09T01:34:22.840Z,0.00
2022-09-09T01:35:22.853Z,0.00
2022-09-09T01:36:22.830Z,0.00
2022-09-09T01:37:22.815Z,0.00
2022-09-09T01:38:22.813Z,0.00
2022-09-09T01:39:22.795Z,0.00
2022-09-09T01:40:22.809Z,0.00
2022-09-09T01:41:22.779Z,0.00
2022-09-09T01:42:22.773Z,0.00
2022-09-09T01:43:22.757Z,0.00
2022-09-09T01:44:22.756Z,0.00
2022-09-09T01:45:22.765Z,0.00
2022-09-09T01:46:22.771Z,0.00
2022-09-09T01:47:22.714Z,0.00
2022-09-09T01:48:22.710Z,0.00
2022-09-09T01:49:22.699Z,0.00
2022-09-09T01:50:22.707Z,0.00
2022-09-09T01:51:22.684Z,0.00
2022-09-09T01:52:22.678Z,0.00
2022-09-09T01:53:22.663Z,0.00
2022-09-09T01:54:22.642Z,0.00
2022-09-09T01:55:22.659Z,0.00
2022-09-09T01:56:22.628Z,0.00
2022-09-09T01:57:22.659Z,0.00
2022-09-09T01:58:22.608Z,0.00
2022-09-09T01:59:22.594Z,0.00
2022-09-09T02:00:22.606Z,0.00
2022-09-09T02:01:22.654Z,0.00
2022-09-09T02:02:22.620Z,0.00
2022-09-09T02:03:22.560Z,0.00
2022-09-09T02:04:22.542Z,0.00
2022-09-09T02:05:22.557Z,0.00
2022-09-09T02:06:22.528Z,0.00
2022-09-09T02:07:22.516Z,0.00
2022-09-09T02:08:22.516Z,0.00
2022-09-09T02:09:22.485Z,0.00
2022-09-09T02:10:22.507Z,0.00
2022-09-09T02:11:22.478Z,0.00
2022-09-09T02:12:22.476Z,0.00
2022-09-09T02:13:22.451Z,0.00
2022-09-09T02:14:22.440Z,0.00
2022-09-09T02:15:22.457Z,0.00
2022-09-09T02:16:22.531Z,0.00
2022-09-09T02:17:22.414Z,0.00
2022-09-09T02:18:22.407Z,0.00
2022-09-09T02:19:22.395Z,0.00
2022-09-09T02:20:22.409Z,0.00
2022-09-09T02:21:22.381Z,0.00
2022-09-09T02:22:22.362Z,0.00
2022-09-09T02:23:22.393Z,0.00
2022-09-09T02:24:22.348Z,0.00
2022-09-09T02:25:22.350Z,0.00
2022-09-09T02:26:22.319Z,0.00
2022-09-09T02:27:22.314Z,0.00
2022-09-09T02:28:22.303Z,0.00
2022-09-09T02:29:22.298Z,0.00
2022-09-09T02:30:22.394Z,0.00
2022-09-09T02:31:22.266Z,0.00
2022-09-09T02:32:22.257Z,0.00
2022-09-09T02:33:22.234Z,0.00
2022-09-09T02:34:22.233Z,0.00
2022-09-09T02:35:22.249Z,0.00
2022-09-09T02:36:22.220Z,0.00
2022-09-09T02:37:22.203Z,0.00
2022-09-09T02:38:22.196Z,0.00
2022-09-09T02:39:22.189Z,0.00
2022-09-09T02:40:22.201Z,0.00
2022-09-09T02:41:22.163Z,0.00
2022-09-09T02:42:22.157Z,0.00
2022-09-09T02:43:22.152Z,0.00
2022-09-09T02:44:22.139Z,0.00
2022-09-09T02:45:22.145Z,0.00
2022-09-09T02:46:22.210Z,0.00
2022-09-09T02:47:22.099Z,0.00
2022-09-09T02:48:47.997Z,0.00
2022-09-09T02:49:22.082Z,0.00
2022-09-09T02:50:22.091Z,0.00
2022-09-09T02:51:22.062Z,0.00
2022-09-09T02:52:22.045Z,0.00
2022-09-09T02:53:22.067Z,0.00
2022-09-09T02:54:22.029Z,0.00
2022-09-09T02:55:22.039Z,0.00
2022-09-09T02:56:22.006Z,0.00
2022-09-09T02:57:22.001Z,0.00
2022-09-09T02:58:21.992Z,0.00
2022-09-09T02:59:21.975Z,0.00
2022-09-09T03:00:21.978Z,0.00
2022-09-09T03:01:22.024Z,0.00
2022-09-09T03:02:22.112Z,0.00
2022-09-09T03:03:21.944Z,0.00
2022-09-09T03:04:21.932Z,0.00
2022-09-09T03:05:21.945Z,0.00
2022-09-09T03:06:21.911Z,0.00
2022-09-09T03:07:21.912Z,0.00
2022-09-09T03:08:21.894Z,0.00
2022-09-09T03:09:21.888Z,0.00
2022-09-09T03:10:21.897Z,0.00
2022-09-09T03:11:21.855Z,0.00
2022-09-09T03:12:21.857Z,0.00
2022-09-09T03:13:21.838Z,0.00
2022-09-09T03:14:21.833Z,0.00
2022-09-09T03:15:21.815Z,0.00
2022-09-09T03:16:22.945Z,0.00
2022-09-09T03:17:21.804Z,0.00
2022-09-09T03:18:21.790Z,0.00
2022-09-09T03:19:21.789Z,0.00
2022-09-09T03:20:21.762Z,0.00
2022-09-09T03:21:21.784Z,0.00
2022-09-09T03:22:21.754Z,0.00
2022-09-09T03:23:21.743Z,0.00
2022-09-09T03:24:21.737Z,0.00
2022-09-09T03:25:21.722Z,0.00
2022-09-09T03:26:21.734Z,0.00
2022-09-09T03:27:21.706Z,0.00
2022-09-09T03:28:21.690Z,0.00
2022-09-09T03:29:21.687Z,0.00
2022-09-09T03:30:21.684Z,0.00
2022-09-09T03:31:21.738Z,0.00
2022-09-09T03:32:21.651Z,0.00
2022-09-09T03:33:21.642Z,0.00
2022-09-09T03:34:21.636Z,0.00
2022-09-09T03:35:21.622Z,0.00
2022-09-09T03:36:21.624Z,0.00
2022-09-09T03:37:21.602Z,0.00
2022-09-09T03:38:21.597Z,0.00
2022-09-09T03:39:21.583Z,0.00
2022-09-09T03:40:21.570Z,0.00
2022-09-09T03:41:21.580Z,0.00
2022-09-09T03:42:21.556Z,0.00
2022-09-09T03:43:21.546Z,0.00
2022-09-09T03:44:21.531Z,0.00
2022-09-09T03:45:21.522Z,0.00
2022-09-09T03:46:21.531Z,0.00
2022-09-09T03:47:21.499Z,0.00
2022-09-09T03:48:21.475Z,0.00
2022-09-09T03:49:21.479Z,0.00
2022-09-09T03:50:21.469Z,0.00
2022-09-09T03:51:21.478Z,0.00
2022-09-09T03:52:23.739Z,0.00
2022-09-09T03:53:22.447Z,0.00
2022-09-09T03:54:21.424Z,0.00
2022-09-09T03:55:21.417Z,0.00
2022-09-09T03:56:21.421Z,0.00
2022-09-09T03:57:21.401Z,0.00
2022-09-09T03:58:21.386Z,0.00
2022-09-09T03:59:21.371Z,0.00
2022-09-09T04:00:21.365Z,0.00
2022-09-09T04:01:21.480Z,0.00
2022-09-09T04:02:21.399Z,0.00
2022-09-09T04:03:23.654Z,0.00
2022-09-09T04:04:22.321Z,0.00
2022-09-09T04:05:21.319Z,0.00
2022-09-09T04:06:21.327Z,0.00
2022-09-09T04:07:21.300Z,0.00
2022-09-09T04:08:21.274Z,0.00
2022-09-09T04:09:21.275Z,0.00
2022-09-09T04:10:21.264Z,0.00
2022-09-09T04:11:21.267Z,0.00
2022-09-09T04:12:21.230Z,0.00
2022-09-09T04:13:21.234Z,0.00
2022-09-09T04:14:21.217Z,0.00
2022-09-09T04:15:21.206Z,0.00
2022-09-09T04:16:21.294Z,4.00
2022-09-09T04:17:21.192Z,4.00
2022-09-09T04:18:21.179Z,0.00
2022-09-09T04:19:21.162Z,4.00
2022-09-09T04:20:21.155Z,4.00
2022-09-09T04:21:21.160Z,8.00
2022-09-09T04:22:21.139Z,8.00
2022-09-09T04:23:21.136Z,8.00
2022-09-09T04:24:21.111Z,12.00
2022-09-09T04:25:21.114Z,8.00
2022-09-09T04:26:21.201Z,12.00
2022-09-09T04:27:21.078Z,12.00
2022-09-09T04:28:21.071Z,16.00
2022-09-09T04:29:21.077Z,20.00
2022-09-09T04:30:21.062Z,24.00
2022-09-09T04:31:21.223Z,28.00
2022-09-09T04:32:21.077Z,36.00
2022-09-09T04:33:21.014Z,36.00
2022-09-09T04:34:22.010Z,44.00
2022-09-09T04:35:21.021Z,56.00
2022-09-09T04:36:21.010Z,64.00
2022-09-09T04:37:20.990Z,72.00
2022-09-09T04:38:20.969Z,80.00
2022-09-09T04:39:20.964Z,92.00
2022-09-09T04:40:20.948Z,104.00
2022-09-09T04:41:20.994Z,120.00
2022-09-09T04:42:20.936Z,136.00
2022-09-09T04:43:20.927Z,152.00
2022-09-09T04:44:20.910Z,172.00
2022-09-09T04:45:20.972Z,188.00
2022-09-09T04:46:20.915Z,208.00
2022-09-09T04:47:20.887Z,228.00
2022-09-09T04:48:20.879Z,252.00
2022-09-09T04:49:20.870Z,276.00
2022-09-09T04:50:20.851Z,300.00
2022-09-09T04:51:20.913Z,324.00
2022-09-09T04:52:20.825Z,352.00
2022-09-09T04:53:20.822Z,380.00
2022-09-09T04:54:20.811Z,408.00
2022-09-09T04:55:20.805Z,432.00
2022-09-09T04:56:20.801Z,456.00
2022-09-09T04:57:20.781Z,488.00
2022-09-09T04:58:20.770Z,520.00
2022-09-09T04:59:20.763Z,552.00
2022-09-09T05:00:20.743Z,588.00
2022-09-09T05:01:20.871Z,628.00
2022-09-09T05:02:20.807Z,668.00
2022-09-09T05:03:20.721Z,704.00
2022-09-09T05:04:20.705Z,760.00
2022-09-09T05:05:20.710Z,824.00
2022-09-09T05:06:20.753Z,872.00
2022-09-09T05:07:20.687Z,900.00
2022-09-09T05:08:20.665Z,908.00
2022-09-09T05:09:20.665Z,880.00
2022-09-09T05:10:20.651Z,872.00
2022-09-09T05:11:20.655Z,888.00
2022-09-09T05:12:20.668Z,928.00
2022-09-09T05:13:20.625Z,968.00
2022-09-09T05:14:20.606Z,1004.00
2022-09-09T05:15:20.600Z,1080.00
2022-09-09T05:16:20.682Z,1176.00
2022-09-09T05:17:20.582Z,1280.00
2022-09-09T05:18:20.574Z,1316.00
2022-09-09T05:19:20.564Z,1364.00
2022-09-09T05:20:20.552Z,1368.00
2022-09-09T05:21:20.545Z,1388.00
2022-09-09T05:22:20.530Z,1404.00
2022-09-09T05:23:21.197Z,1336.00
2022-09-09T05:24:20.515Z,1360.00
2022-09-09T05:25:20.513Z,1364.00
2022-09-09T05:26:20.508Z,1384.00
2022-09-09T05:27:20.488Z,1360.00
2022-09-09T05:28:20.484Z,1316.00
2022-09-09T05:29:20.477Z,1292.00
2022-09-09T05:30:20.455Z,1300.00
2022-09-09T05:31:20.505Z,1340.00
2022-09-09T05:32:20.441Z,1400.00
2022-09-09T05:33:20.419Z,1460.00
2022-09-09T05:34:20.431Z,1552.00
2022-09-09T05:35:20.435Z,1688.00
2022-09-09T05:36:21.451Z,1748.00
2022-09-09T05:37:20.425Z,1768.00
2022-09-09T05:38:20.370Z,1772.00
2022-09-09T05:39:20.372Z,1780.00
2022-09-09T05:40:20.410Z,1752.00
2022-09-09T05:41:20.363Z,1716.00
2022-09-09T05:42:20.338Z,1688.00
2022-09-09T05:43:20.323Z,1684.00
2022-09-09T05:44:20.320Z,1692.00
2022-09-09T05:45:20.291Z,1728.00
2022-09-09T05:46:20.403Z,1788.00
2022-09-09T05:47:20.288Z,1828.00
2022-09-09T05:48:20.279Z,1796.00
2022-09-09T05:49:20.268Z,1764.00
2022-09-09T05:50:20.285Z,1760.00
2022-09-09T05:51:20.263Z,1804.00
2022-09-09T05:52:20.238Z,1920.00
2022-09-09T05:53:20.228Z,2112.00
2022-09-09T05:54:20.223Z,2392.00
2022-09-09T05:55:20.214Z,2676.00
2022-09-09T05:56:20.225Z,2896.00
2022-09-09T05:57:20.203Z,3100.00
2022-09-09T05:58:20.180Z,3260.00
2022-09-09T05:59:20.165Z,3604.00
2022-09-09T06:00:20.184Z,4244.00
2022-09-09T06:01:20.167Z,4768.00
2022-09-09T06:02:20.239Z,5152.00
2022-09-09T06:03:20.165Z,5540.00
2022-09-09T06:04:20.115Z,5700.00
2022-09-09T06:05:20.112Z,6020.00
2022-09-09T06:06:20.111Z,5864.00
2022-09-09T06:07:20.094Z,5520.00
2022-09-09T06:08:20.078Z,5340.00
2022-09-09T06:09:20.067Z,5284.00
2022-09-09T06:10:20.056Z,5132.00
2022-09-09T06:11:20.066Z,5080.00
2022-09-09T06:12:20.038Z,5124.00
2022-09-09T06:13:20.027Z,5196.00
2022-09-09T06:14:20.005Z,5288.00
2022-09-09T06:15:21.007Z,5368.00
2022-09-09T06:16:20.039Z,5520.00
2022-09-09T06:17:19.987Z,5556.00
2022-09-09T06:18:19.983Z,5612.00
2022-09-09T06:19:19.965Z,5676.00
2022-09-09T06:20:19.951Z,5724.00
2022-09-09T06:21:19.961Z,5784.00
2022-09-09T06:22:19.933Z,5888.00
2022-09-09T06:23:19.927Z,6032.00
2022-09-09T06:24:19.911Z,6152.00
2022-09-09T06:25:19.909Z,6184.00
2022-09-09T06:26:19.942Z,5908.00
2022-09-09T06:27:19.896Z,5864.00
2022-09-09T06:28:19.920Z,6288.00
2022-09-09T06:29:19.865Z,6532.00
2022-09-09T06:30:19.872Z,6420.00
2022-09-09T06:31:19.954Z,6272.00
2022-09-09T06:32:19.820Z,6236.00
2022-09-09T06:33:19.832Z,6260.00
2022-09-09T06:34:19.806Z,6264.00
2022-09-09T06:35:19.801Z,6284.00
2022-09-09T06:36:19.813Z,6324.00
2022-09-09T06:37:19.785Z,6352.00
2022-09-09T06:38:19.780Z,6204.00
2022-09-09T06:39:19.760Z,6256.00
2022-09-09T06:40:19.833Z,5980.00
2022-09-09T06:41:19.796Z,6020.00
2022-09-09T06:42:19.736Z,6132.00
2022-09-09T06:43:19.724Z,6128.00
2022-09-09T06:44:19.707Z,6324.00
2022-09-09T06:45:19.707Z,6524.00
2022-09-09T06:46:19.749Z,6488.00
2022-09-09T06:47:19.680Z,6420.00
2022-09-09T06:48:19.671Z,6192.00
2022-09-09T06:49:19.660Z,6176.00
2022-09-09T06:50:19.652Z,6236.00
2022-09-09T06:51:19.639Z,6352.00
2022-09-09T06:52:19.649Z,6364.00
2022-09-09T06:53:19.628Z,6320.00
2022-09-09T06:54:19.615Z,6296.00
2022-09-09T06:55:19.605Z,6208.00
2022-09-09T06:56:19.590Z,5336.00
2022-09-09T06:57:38.314Z,5228.00
2022-09-09T06:58:21.600Z,5456.00
2022-09-09T06:59:19.565Z,5180.00
2022-09-09T07:00:19.551Z,4896.00
2022-09-09T07:01:19.592Z,4720.00
2022-09-09T07:02:19.607Z,5204.00
2022-09-09T07:03:19.522Z,5064.00
2022-09-09T07:04:19.510Z,4744.00
2022-09-09T07:05:19.517Z,4592.00
2022-09-09T07:06:20.193Z,4768.00
2022-09-09T07:07:19.492Z,4792.00
2022-09-09T07:08:19.471Z,5148.00
2022-09-09T07:09:19.457Z,6168.00
2022-09-09T07:10:19.514Z,6492.00
2022-09-09T07:11:19.431Z,6364.00
2022-09-09T07:12:19.481Z,6252.00
2022-09-09T07:13:19.560Z,6092.00
2022-09-09T07:14:19.411Z,5720.00
2022-09-09T07:15:19.397Z,5620.00
2022-09-09T07:16:19.463Z,5904.00
2022-09-09T07:17:19.393Z,5444.00
2022-09-09T07:18:19.372Z,5148.00
2022-09-09T07:19:19.355Z,4676.00
2022-09-09T07:20:19.385Z,4820.00
2022-09-09T07:21:19.332Z,4900.00
2022-09-09T07:22:19.346Z,5036.00
2022-09-09T07:23:19.320Z,4888.00
2022-09-09T07:24:19.292Z,4872.00
2022-09-09T07:25:19.297Z,4924.00
2022-09-09T07:26:19.279Z,5388.00
2022-09-09T07:27:19.288Z,6340.00
2022-09-09T07:28:19.262Z,7528.00
2022-09-09T07:29:21.037Z,7692.00
2022-09-09T07:30:25.516Z,7664.00
2022-09-09T07:31:21.302Z,8152.00
2022-09-09T07:32:19.220Z,7052.00
2022-09-09T07:33:19.220Z,7336.00
2022-09-09T07:34:19.199Z,7400.00
2022-09-09T07:35:19.196Z,7584.00
2022-09-09T07:36:19.185Z,6896.00
2022-09-09T07:37:19.204Z,6108.00
2022-09-09T07:38:19.168Z,5680.00
2022-09-09T07:39:19.162Z,5352.00
2022-09-09T07:40:19.236Z,5108.00
2022-09-09T07:41:19.132Z,5128.00
2022-09-09T07:42:19.141Z,5324.00
2022-09-09T07:43:19.114Z,5580.00
2022-09-09T07:44:19.106Z,7104.00
2022-09-09T07:45:19.099Z,7100.00
2022-09-09T07:46:19.154Z,6952.00
2022-09-09T07:47:19.094Z,6896.00
2022-09-09T07:48:19.057Z,6936.00
2022-09-09T07:49:24.375Z,7072.00
2022-09-09T07:50:21.125Z,7140.00
2022-09-09T07:51:19.034Z,7304.00
2022-09-09T07:52:20.238Z,7436.00
2022-09-09T07:53:19.008Z,7524.00
2022-09-09T07:54:19.082Z,7408.00
2022-09-09T07:55:18.987Z,7240.00
2022-09-09T07:56:18.983Z,7180.00
2022-09-09T07:57:19.503Z,7208.00
2022-09-09T07:58:20.014Z,7236.00
2022-09-09T07:59:18.953Z,7320.00
2022-09-09T08:00:18.929Z,7596.00
2022-09-09T08:01:18.990Z,7760.00
2022-09-09T08:02:18.950Z,8096.00
2022-09-09T08:03:18.974Z,9284.00
2022-09-09T08:04:18.898Z,9236.00
2022-09-09T08:05:18.889Z,10912.00
2022-09-09T08:06:19.027Z,11592.00
2022-09-09T08:07:18.888Z,10424.00
2022-09-09T08:08:18.857Z,11200.00
2022-09-09T08:09:18.845Z,11452.00
2022-09-09T08:10:18.840Z,11240.00
2022-09-09T08:11:18.855Z,10796.00
2022-09-09T08:12:19.830Z,8932.00
2022-09-09T08:13:19.025Z,8392.00
2022-09-09T08:14:18.793Z,8064.00
2022-09-09T08:15:18.784Z,7660.00
2022-09-09T08:16:18.798Z,7312.00
2022-09-09T08:17:18.778Z,7032.00
2022-09-09T08:18:18.756Z,6868.00
2022-09-09T08:19:18.755Z,6856.00
2022-09-09T08:20:18.756Z,7032.00
2022-09-09T08:21:18.735Z,6932.00
2022-09-09T08:22:18.735Z,7152.00
2022-09-09T08:23:18.709Z,7092.00
2022-09-09T08:24:18.690Z,7320.00
2022-09-09T08:25:18.697Z,7036.00
2022-09-09T08:26:18.679Z,6912.00
2022-09-09T08:27:18.688Z,6888.00
2022-09-09T08:28:18.669Z,7624.00
2022-09-09T08:29:19.219Z,8308.00
2022-09-09T08:30:18.714Z,9604.00
2022-09-09T08:31:18.726Z,9636.00
2022-09-09T08:32:18.634Z,9636.00
2022-09-09T08:33:18.616Z,9696.00
2022-09-09T08:34:18.607Z,9740.00
2022-09-09T08:35:18.586Z,10096.00
2022-09-09T08:36:18.567Z,10712.00
2022-09-09T08:37:18.586Z,10468.00
2022-09-09T08:38:18.557Z,11868.00
2022-09-09T08:39:18.554Z,11748.00
2022-09-09T08:40:18.585Z,10796.00
2022-09-09T08:41:18.534Z,11280.00
2022-09-09T08:42:18.534Z,11432.00
2022-09-09T08:43:18.506Z,12528.00
2022-09-09T08:44:19.489Z,12564.00
2022-09-09T08:45:18.488Z,11640.00
2022-09-09T08:46:18.518Z,9636.00
2022-09-09T08:47:18.486Z,10096.00
2022-09-09T08:48:38.570Z,11268.00
2022-09-09T08:49:18.452Z,10812.00
2022-09-09T08:50:18.457Z,10236.00
2022-09-09T08:51:18.419Z,10200.00
2022-09-09T08:52:18.430Z,10484.00
2022-09-09T08:53:18.417Z,11132.00
2022-09-09T08:54:30.186Z,10860.00
2022-09-09T08:55:20.388Z,10836.00
2022-09-09T08:56:18.369Z,11276.00
2022-09-09T08:57:18.383Z,11740.00
2022-09-09T08:58:18.360Z,12536.00
2022-09-09T08:59:18.343Z,11104.00
2022-09-09T09:00:18.332Z,10868.00
2022-09-09T09:01:18.366Z,10744.00
2022-09-09T09:02:19.328Z,12972.00
2022-09-09T09:03:18.295Z,12112.00
2022-09-09T09:04:18.345Z,11476.00
2022-09-09T09:05:18.300Z,10260.00
2022-09-09T09:06:18.268Z,11008.00
2022-09-09T09:07:18.274Z,8996.00
2022-09-09T09:08:18.253Z,11268.00
2022-09-09T09:09:18.241Z,8756.00
2022-09-09T09:10:39.948Z,9972.00
2022-09-09T09:11:20.219Z,10432.00
2022-09-09T09:12:18.227Z,8300.00
2022-09-09T09:13:18.208Z,8008.00
2022-09-09T09:14:18.258Z,8924.00
2022-09-09T09:15:18.175Z,8276.00
2022-09-09T09:16:18.235Z,8996.00
2022-09-09T09:17:18.176Z,11360.00
2022-09-09T09:18:18.156Z,12692.00
2022-09-09T09:19:18.147Z,10092.00
2022-09-09T09:20:18.123Z,9644.00
2022-09-09T09:21:18.125Z,9544.00
2022-09-09T09:22:18.125Z,12864.00
2022-09-09T09:23:18.091Z,13260.00
2022-09-09T09:24:21.203Z,15360.00
2022-09-09T09:25:19.074Z,13532.00
2022-09-09T09:26:18.071Z,13956.00
2022-09-09T09:27:18.079Z,13988.00
2022-09-09T09:28:18.052Z,14688.00
2022-09-09T09:29:18.038Z,14556.00
2022-09-09T09:30:25.599Z,14620.00
2022-09-09T09:31:20.038Z,14296.00
2022-09-09T09:32:18.038Z,16256.00
2022-09-09T09:33:18.007Z,16480.00
2022-09-09T09:34:17.995Z,17312.00
2022-09-09T09:35:17.981Z,15200.00
2022-09-09T09:36:17.971Z,13012.00
2022-09-09T09:37:17.985Z,13240.00
2022-09-09T09:40:19.935Z,11032.00
2022-09-09T09:41:17.928Z,11080.00
2022-09-09T09:42:20.298Z,14096.00
2022-09-09T09:43:18.909Z,15200.00
2022-09-09T09:44:17.884Z,14220.00
2022-09-09T09:45:17.880Z,14092.00
2022-09-09T09:46:18.399Z,14912.00
2022-09-09T09:47:18.879Z,12436.00
2022-09-09T09:48:17.856Z,13192.00
2022-09-09T09:49:17.861Z,13044.00
2022-09-09T09:50:17.829Z,12372.00
2022-09-09T09:51:17.829Z,12056.00
2022-09-09T09:52:17.814Z,12216.00
2022-09-09T09:53:17.798Z,11924.00
2022-09-09T09:54:17.790Z,12968.00
2022-09-09T09:55:17.781Z,15840.00
2022-09-09T09:56:17.770Z,15552.00
2022-09-09T09:57:17.774Z,13656.00
2022-09-09T09:58:18.646Z,16064.00
2022-09-09T09:59:23.765Z,16192.00
2022-09-09T10:00:18.774Z,13200.00
2022-09-09T10:01:17.742Z,12496.00
2022-09-09T10:02:17.731Z,12136.00
2022-09-09T10:03:17.703Z,11292.00
2022-09-09T10:04:17.717Z,12588.00
2022-09-09T10:05:17.680Z,15264.00
2022-09-09T10:06:17.678Z,13564.00
2022-09-09T10:07:17.683Z,16896.00
2022-09-09T10:08:17.671Z,17216.00
2022-09-09T10:09:17.669Z,14572.00
2022-09-09T10:10:17.639Z,17632.00
2022-09-09T10:11:17.630Z,17088.00
2022-09-09T10:12:17.631Z,14528.00
2022-09-09T10:13:17.623Z,15968.00
2022-09-09T10:14:17.601Z,15340.00
2022-09-09T10:15:17.595Z,16096.00
2022-09-09T10:16:17.617Z,15680.00
2022-09-09T10:17:17.584Z,15264.00
2022-09-09T10:18:17.553Z,14836.00
2022-09-09T10:19:17.547Z,15068.00
2022-09-09T10:20:17.538Z,15328.00
2022-09-09T10:21:17.531Z,15360.00
2022-09-09T10:22:17.547Z,14688.00
2022-09-09T10:23:17.556Z,12784.00
2022-09-09T10:24:17.509Z,12164.00
2022-09-09T10:25:17.502Z,11928.00
2022-09-09T10:26:17.486Z,11692.00
2022-09-09T10:27:17.490Z,11320.00
2022-09-09T10:28:17.459Z,11372.00
2022-09-09T10:29:17.500Z,12180.00
2022-09-09T10:30:17.454Z,14200.00
2022-09-09T10:31:17.502Z,17760.00
2022-09-09T10:32:17.458Z,19904.00
2022-09-09T10:33:17.418Z,20288.00
2022-09-09T10:34:17.409Z,19040.00
2022-09-09T10:35:17.396Z,14832.00
2022-09-09T10:36:17.397Z,13720.00
2022-09-09T10:37:17.397Z,12864.00
2022-09-09T10:38:17.365Z,12408.00
2022-09-09T10:39:17.369Z,12540.00
2022-09-09T10:40:17.423Z,14624.00
2022-09-09T10:41:17.337Z,15680.00
2022-09-09T10:42:17.386Z,16320.00
2022-09-09T10:43:17.314Z,17088.00
2022-09-09T10:44:17.299Z,17088.00
2022-09-09T10:45:17.295Z,15212.00
2022-09-09T10:46:17.351Z,16512.00
2022-09-09T10:47:17.291Z,17248.00
2022-09-09T10:48:17.270Z,17536.00
2022-09-09T10:49:20.740Z,18336.00
2022-09-09T10:50:19.339Z,19264.00
2022-09-09T10:51:17.229Z,19296.00
2022-09-09T10:52:17.241Z,18752.00
2022-09-09T10:53:17.214Z,18144.00
2022-09-09T10:54:17.205Z,17408.00
2022-09-09T10:55:17.189Z,16352.00
2022-09-09T10:56:17.175Z,16224.00
2022-09-09T10:57:17.186Z,15296.00
2022-09-09T10:58:17.163Z,14340.00
2022-09-09T10:59:17.162Z,14012.00
2022-09-09T11:00:17.132Z,13836.00
2022-09-09T11:01:17.259Z,13756.00
2022-09-09T11:02:17.152Z,13344.00
2022-09-09T11:03:17.119Z,13224.00
2022-09-09T11:04:17.133Z,11824.00
2022-09-09T11:05:17.091Z,11256.00
2022-09-09T11:06:17.129Z,11648.00
2022-09-09T11:07:17.098Z,11648.00
2022-09-09T11:08:17.133Z,11696.00
2022-09-09T11:09:17.056Z,11184.00
2022-09-09T11:10:17.041Z,10648.00
2022-09-09T11:11:17.030Z,10636.00
2022-09-09T11:12:17.041Z,11520.00
2022-09-09T11:13:17.013Z,12180.00
2022-09-09T11:14:16.996Z,10684.00
2022-09-09T11:15:17.004Z,8464.00
2022-09-09T11:16:16.994Z,9324.00
2022-09-09T11:17:16.992Z,9156.00
2022-09-09T11:18:16.960Z,9600.00
2022-09-09T11:19:16.950Z,9956.00
2022-09-09T11:20:16.940Z,10572.00
2022-09-09T11:21:16.930Z,11368.00
2022-09-09T11:22:17.007Z,9652.00
2022-09-09T11:23:16.912Z,9612.00
2022-09-09T11:24:17.601Z,8800.00
2022-09-09T11:25:16.879Z,10048.00
2022-09-09T11:26:16.875Z,9812.00
2022-09-09T11:27:16.938Z,12908.00
2022-09-09T11:28:16.854Z,9972.00
2022-09-09T11:29:16.996Z,9876.00
2022-09-09T11:30:27.469Z,10488.00
2022-09-09T11:31:18.880Z,9748.00
2022-09-09T11:32:16.836Z,9124.00
2022-09-09T11:33:16.803Z,8964.00
2022-09-09T11:34:16.797Z,8984.00
2022-09-09T11:35:16.785Z,8948.00
2022-09-09T11:36:16.771Z,8948.00
2022-09-09T11:37:16.791Z,9136.00
2022-09-09T11:38:16.755Z,9544.00
2022-09-09T11:39:16.744Z,10004.00
2022-09-09T11:40:17.774Z,10136.00
2022-09-09T11:41:21.091Z,10232.00
2022-09-09T11:42:18.734Z,10556.00
2022-09-09T11:43:16.702Z,11208.00
2022-09-09T11:44:16.693Z,11824.00
2022-09-09T11:45:16.685Z,11832.00
2022-09-09T11:46:16.695Z,11444.00
2022-09-09T11:47:16.689Z,10148.00
2022-09-09T11:48:16.650Z,9196.00
2022-09-09T11:49:16.650Z,9376.00
2022-09-09T11:50:16.640Z,9872.00
2022-09-09T11:51:17.228Z,10828.00
2022-09-09T11:52:16.690Z,13892.00
2022-09-09T11:53:16.603Z,13900.00
2022-09-09T11:54:16.593Z,13640.00
2022-09-09T11:55:16.580Z,13380.00
2022-09-09T11:56:16.573Z,13016.00
2022-09-09T11:57:16.571Z,12408.00
2022-09-09T11:58:16.555Z,9496.00
2022-09-09T11:59:16.536Z,9968.00
2022-09-09T12:00:16.536Z,9268.00
2022-09-09T12:01:16.521Z,8844.00
2022-09-09T12:02:16.650Z,8756.00
2022-09-09T12:03:16.489Z,8488.00
2022-09-09T12:04:21.294Z,8060.00
2022-09-09T12:05:18.525Z,7584.00
2022-09-09T12:06:16.469Z,7248.00
2022-09-09T12:07:16.467Z,7000.00
2022-09-09T12:08:16.453Z,6872.00
2022-09-09T12:09:16.441Z,6768.00
2022-09-09T12:10:16.429Z,6636.00
2022-09-09T12:11:16.409Z,6528.00
2022-09-09T12:12:16.459Z,6500.00
2022-09-09T12:13:16.396Z,6584.00
2022-09-09T12:14:16.381Z,6688.00
2022-09-09T12:15:16.370Z,6900.00
2022-09-09T12:16:16.426Z,7188.00
2022-09-09T12:17:16.375Z,7228.00
2022-09-09T12:18:16.342Z,7228.00
2022-09-09T12:19:16.371Z,7548.00
2022-09-09T12:20:16.336Z,7860.00
2022-09-09T12:21:16.321Z,7848.00
2022-09-09T12:22:16.334Z,7536.00
2022-09-09T12:23:16.298Z,7028.00
2022-09-09T12:24:16.289Z,6624.00
2022-09-09T12:25:20.208Z,6588.00
2022-09-09T12:26:17.316Z,6652.00
2022-09-09T12:27:16.268Z,6604.00
2022-09-09T12:28:16.255Z,6584.00